Hoosick Junction, New York
Current Conditions -  °F | °C
As of 7:27 PM on Thursday 18 Dec 2014 (Local Time) from KDDH Reporting Station
Overcast Overcast  
Wind Chill: 25°   Ceiling: 1600
Heat Index: 31°   Visibility: 10mi
Dew Point: 26°   Wind: 6mph
Humidity: 82%   Direction: 270°W
Pressure: 29.91"   Gusts: 16mph
Location:  42.9226°N, 73.3603°W
Report Text: KDDH 190027Z AUTO 27005G14KT 10SM OVC016 M01/M03 A2991 RMK AO2 T10061033
Loading
Personal Weather Stations






























Interactive Weather Map New forecast layout! Learn more

10-Day Weather Forecast

Advertisements
Track Severe Weather on mobile